createdAt,value
2023-03-13T00:02:09.832Z,39.50
2023-03-13T00:04:39.298Z,36.85
2023-03-13T00:07:07.368Z,37.35
2023-03-13T00:09:35.258Z,39.17
2023-03-13T00:12:03.249Z,40.78
2023-03-13T00:14:31.154Z,41.88
2023-03-13T00:16:59.396Z,34.30
2023-03-13T00:19:27.458Z,41.88
2023-03-13T00:21:57.132Z,33.53
2023-03-13T00:24:24.982Z,33.13
2023-03-13T00:26:53.407Z,43.45
2023-03-13T00:29:21.276Z,44.00
2023-03-13T00:31:49.508Z,42.30
2023-03-13T00:34:17.931Z,46.40
2023-03-13T00:36:45.933Z,34.50
2023-03-13T00:39:15.567Z,48.97
2023-03-13T00:41:43.873Z,55.45
2023-03-13T00:44:11.998Z,32.72
2023-03-13T00:46:39.947Z,32.60
2023-03-13T00:49:08.912Z,44.20
2023-03-13T00:51:36.876Z,40.35
2023-03-13T00:54:05.464Z,46.75
2023-03-13T00:56:35.557Z,41.67
2023-03-13T00:59:03.588Z,38.60
2023-03-13T01:01:33.545Z,45.08
2023-03-13T01:04:03.170Z,53.60
2023-03-13T01:06:33.350Z,47.20
2023-03-13T01:09:02.112Z,45.22
2023-03-13T01:11:31.876Z,39.67
2023-03-13T01:14:04.927Z,35.22
2023-03-13T01:16:34.756Z,38.28
2023-03-13T01:19:05.531Z,50.63
2023-03-13T01:21:33.531Z,42.47
2023-03-13T01:24:02.442Z,40.65
2023-03-13T01:26:30.632Z,54.72
2023-03-13T01:28:58.888Z,39.53
2023-03-13T01:31:30.878Z,45.53
2023-03-13T01:34:02.212Z,38.60
2023-03-13T01:36:31.195Z,53.33
2023-03-13T01:39:01.493Z,45.67
2023-03-13T01:41:31.745Z,49.33
2023-03-13T01:44:00.482Z,38.03
2023-03-13T01:46:35.427Z,46.83
2023-03-13T01:49:15.943Z,49.42
2023-03-13T01:52:08.626Z,46.85
2023-03-13T01:54:45.594Z,33.20
2023-03-13T01:57:22.246Z,37.60
2023-03-13T01:59:54.884Z,41.95
2023-03-13T02:02:25.713Z,34.85
2023-03-13T02:04:58.087Z,43.45
2023-03-13T02:07:31.807Z,43.60
2023-03-13T02:10:00.780Z,43.80
2023-03-13T02:12:32.888Z,42.67
2023-03-13T02:15:06.044Z,53.17
2023-03-13T02:17:37.084Z,55.42
2023-03-13T02:20:05.675Z,44.35
2023-03-13T02:22:41.597Z,34.90
2023-03-13T02:25:18.894Z,28.70
2023-03-13T02:27:49.506Z,40.92
2023-03-13T02:30:17.575Z,30.52
2023-03-13T02:32:46.862Z,44.63
2023-03-13T02:35:18.008Z,32.40
2023-03-13T02:37:49.519Z,31.67
2023-03-13T02:40:25.859Z,40.58
2023-03-13T02:45:24.869Z,30.05
2023-03-13T02:47:52.941Z,31.35
2023-03-13T02:50:22.212Z,27.23
2023-03-13T02:52:57.012Z,30.13
2023-03-13T02:57:56.572Z,27.67
2023-03-13T03:00:26.830Z,19.88
2023-03-13T03:02:56.455Z,18.55
2023-03-13T03:05:25.492Z,15.82
2023-03-13T03:07:53.580Z,26.92
2023-03-13T03:10:21.547Z,25.30
2023-03-13T03:12:50.167Z,23.67
2023-03-13T03:15:20.988Z,17.27
2023-03-13T03:17:49.788Z,15.80
2023-03-13T03:20:17.844Z,23.48
2023-03-13T03:22:45.739Z,12.95
2023-03-13T03:25:14.322Z,14.23
2023-03-13T03:27:42.598Z,12.23
2023-03-13T03:30:12.295Z,15.65
2023-03-13T03:32:42.286Z,14.43
2023-03-13T03:35:10.792Z,14.98
2023-03-13T03:37:38.859Z,10.77
2023-03-13T03:40:08.003Z,14.80
2023-03-13T03:42:36.465Z,10.45
2023-03-13T03:45:06.473Z,10.40
2023-03-13T03:47:34.703Z,8.07
2023-03-13T03:50:04.789Z,9.05
2023-03-13T03:52:40.088Z,8.18
2023-03-13T03:55:08.616Z,7.47
2023-03-13T03:57:36.788Z,12.02
2023-03-13T04:00:08.054Z,10.05
2023-03-13T04:02:41.053Z,5.53
2023-03-13T04:05:12.025Z,10.73
2023-03-13T04:07:41.579Z,6.45
2023-03-13T04:10:11.111Z,10.57
2023-03-13T04:12:44.239Z,5.22
2023-03-13T04:15:12.970Z,9.80
2023-03-13T04:17:41.639Z,6.82
2023-03-13T04:20:14.654Z,6.00
2023-03-13T04:22:43.300Z,5.18
2023-03-13T04:25:12.417Z,5.68
2023-03-13T04:27:40.426Z,5.88
2023-03-13T04:30:11.243Z,7.35
2023-03-13T04:33:02.617Z,12.35
2023-03-13T04:35:35.268Z,9.93
2023-03-13T04:38:30.003Z,12.80
2023-03-13T04:40:57.907Z,9.48
2023-03-13T04:43:51.727Z,11.40
2023-03-13T04:46:45.777Z,17.65
2023-03-13T04:49:34.992Z,15.80
2023-03-13T04:52:30.595Z,10.02
2023-03-13T04:55:18.865Z,20.60
2023-03-13T04:57:55.442Z,20.50
2023-03-13T05:00:37.883Z,11.35
2023-03-13T05:03:24.668Z,15.65
2023-03-13T05:06:08.872Z,11.60
2023-03-13T05:08:58.916Z,14.88
2023-03-13T05:11:45.522Z,16.63
2023-03-13T05:17:32.952Z,12.77
2023-03-13T05:20:21.814Z,17.42
2023-03-13T05:23:04.119Z,17.95
2023-03-13T05:25:49.896Z,19.05
2023-03-13T05:28:26.975Z,16.08
2023-03-13T05:31:30.411Z,21.08
2023-03-13T05:34:10.160Z,21.13
2023-03-13T05:36:44.223Z,15.80
2023-03-13T05:39:30.815Z,14.35
2023-03-13T05:42:14.305Z,9.50
2023-03-13T05:44:51.565Z,18.35
2023-03-13T05:47:49.464Z,10.30
2023-03-13T05:50:35.968Z,12.75
2023-03-13T05:53:42.369Z,15.00
2023-03-13T05:56:26.989Z,15.82
2023-03-13T05:59:07.602Z,19.83
2023-03-13T06:02:11.101Z,19.92
2023-03-13T06:04:44.091Z,23.10
2023-03-13T06:07:12.524Z,14.25
2023-03-13T06:09:41.721Z,18.73
2023-03-13T06:12:11.966Z,22.98
2023-03-13T06:14:41.794Z,14.15
2023-03-13T06:17:15.488Z,23.95
2023-03-13T06:19:43.520Z,15.35
2023-03-13T06:22:11.495Z,14.25
2023-03-13T06:24:39.634Z,17.65
2023-03-13T06:27:08.532Z,24.05
2023-03-13T06:29:36.746Z,20.25
2023-03-13T06:32:06.997Z,13.65
2023-03-13T06:34:35.128Z,16.17
2023-03-13T06:37:03.225Z,20.65
2023-03-13T06:39:31.535Z,16.23
2023-03-13T06:41:59.873Z,19.73
2023-03-13T06:44:28.104Z,18.52
2023-03-13T06:46:56.042Z,20.30
2023-03-13T06:49:25.634Z,17.17
2023-03-13T06:51:53.674Z,20.42
2023-03-13T06:54:21.529Z,13.93
2023-03-13T06:56:49.473Z,16.13
2023-03-13T06:59:17.457Z,14.93
2023-03-13T07:01:46.003Z,17.80
2023-03-13T07:04:14.874Z,12.73
2023-03-13T07:06:44.380Z,16.23
2023-03-13T07:09:12.509Z,14.68
2023-03-13T07:11:40.948Z,12.88
2023-03-13T07:14:16.949Z,19.63
2023-03-13T07:16:45.772Z,16.15
2023-03-13T07:19:14.427Z,23.75
2023-03-13T07:21:44.316Z,21.80
2023-03-13T07:24:12.702Z,18.08
2023-03-13T07:26:46.456Z,17.05
2023-03-13T07:29:22.507Z,24.55
2023-03-13T07:31:50.516Z,17.70
2023-03-13T07:34:18.647Z,12.57
2023-03-13T07:36:48.621Z,21.15
2023-03-13T07:39:16.760Z,22.73
2023-03-13T07:41:44.818Z,26.65
2023-03-13T07:44:17.198Z,21.63
2023-03-13T07:46:46.052Z,22.10
2023-03-13T07:49:14.291Z,17.15
2023-03-13T07:51:44.273Z,16.75
2023-03-13T07:54:14.336Z,12.15
2023-03-13T07:56:42.335Z,19.00
2023-03-13T07:59:10.621Z,10.57
2023-03-13T08:01:38.668Z,15.23
2023-03-13T08:04:07.523Z,10.77
2023-03-13T08:06:36.921Z,14.63
2023-03-13T08:09:06.679Z,16.20
2023-03-13T08:11:36.058Z,12.55
2023-03-13T08:14:04.273Z,20.58
2023-03-13T08:16:34.930Z,16.83
2023-03-13T08:19:05.865Z,20.05
2023-03-13T08:21:35.958Z,18.85
2023-03-13T08:24:07.276Z,14.63
2023-03-13T08:26:38.990Z,14.57
2023-03-13T08:29:09.158Z,7.15
2023-03-13T08:31:39.353Z,9.13
2023-03-13T08:34:07.305Z,9.40
2023-03-13T08:36:36.906Z,10.45
2023-03-13T08:39:07.050Z,11.57
2023-03-13T08:41:37.785Z,9.85
2023-03-13T08:44:06.520Z,13.02
2023-03-13T08:46:36.218Z,4.38
2023-03-13T08:49:05.469Z,6.90
2023-03-13T08:51:33.528Z,15.90
2023-03-13T08:54:02.765Z,7.68
2023-03-13T08:56:31.671Z,9.23
2023-03-13T08:59:02.699Z,11.82
2023-03-13T09:01:33.311Z,16.60
2023-03-13T09:04:03.868Z,6.80
2023-03-13T09:06:32.565Z,6.80
2023-03-13T09:09:00.526Z,11.30
2023-03-13T09:11:28.990Z,8.15
2023-03-13T09:13:59.368Z,10.15
2023-03-13T09:16:30.675Z,6.57
2023-03-13T09:19:00.122Z,7.85
2023-03-13T09:21:30.098Z,9.98
2023-03-13T09:23:58.972Z,12.05
2023-03-13T09:26:28.332Z,8.82
2023-03-13T09:28:57.202Z,20.33
2023-03-13T09:31:26.718Z,16.38
2023-03-13T09:33:56.268Z,18.42
2023-03-13T09:36:24.936Z,20.30
2023-03-13T09:38:54.750Z,11.88
2023-03-13T09:41:26.757Z,15.30
2023-03-13T09:44:03.182Z,25.20
2023-03-13T09:46:38.898Z,17.30
2023-03-13T09:49:17.850Z,24.05
2023-03-13T09:51:51.223Z,16.95
2023-03-13T09:54:25.905Z,16.10
2023-03-13T09:56:57.568Z,15.27
2023-03-13T09:59:30.993Z,21.27
2023-03-13T10:02:02.110Z,16.85
2023-03-13T10:04:40.473Z,16.70
2023-03-13T10:07:12.246Z,10.57
2023-03-13T10:09:41.530Z,16.85
2023-03-13T10:12:16.836Z,22.23
2023-03-13T10:14:49.668Z,16.90
2023-03-13T10:17:29.336Z,18.40
2023-03-13T10:20:02.329Z,15.93
2023-03-13T10:22:32.525Z,20.20
2023-03-13T10:25:04.317Z,25.60
2023-03-13T10:27:32.448Z,26.92
2023-03-13T10:30:00.456Z,18.00
2023-03-13T10:32:28.671Z,24.27
2023-03-13T10:35:00.492Z,24.33
2023-03-13T10:37:30.743Z,19.42
2023-03-13T10:40:15.063Z,22.85
2023-03-13T10:42:46.193Z,21.30
2023-03-13T10:45:18.222Z,25.25
2023-03-13T10:47:46.216Z,26.17
2023-03-13T10:50:24.426Z,21.52
2023-03-13T10:52:52.979Z,25.15
2023-03-13T10:55:23.405Z,26.52
2023-03-13T10:57:59.743Z,24.85
2023-03-13T11:00:36.533Z,25.02
2023-03-13T11:03:08.890Z,19.65
2023-03-13T11:05:43.692Z,30.40
2023-03-13T11:08:22.713Z,17.52
2023-03-13T11:11:02.291Z,23.23
2023-03-13T11:13:37.643Z,25.40
2023-03-13T11:16:22.107Z,20.02
2023-03-13T11:19:09.282Z,24.42
2023-03-13T11:21:49.238Z,20.85
2023-03-13T11:24:25.540Z,16.13
2023-03-13T11:27:05.076Z,21.85
2023-03-13T11:29:43.188Z,19.30
2023-03-13T11:32:23.849Z,16.05
2023-03-13T11:34:55.717Z,17.85
2023-03-13T11:37:27.277Z,21.45
2023-03-13T11:40:11.089Z,20.40
2023-03-13T11:47:58.944Z,13.73
2023-03-13T11:50:36.898Z,11.50
2023-03-13T11:53:21.449Z,13.75
2023-03-13T11:56:03.368Z,10.80
2023-03-13T11:58:52.761Z,21.42
2023-03-13T12:01:24.216Z,22.60
2023-03-13T12:03:59.496Z,15.57
2023-03-13T12:06:32.068Z,18.17
2023-03-13T12:09:08.343Z,13.32
2023-03-13T12:11:43.673Z,13.95
2023-03-13T12:14:16.286Z,21.95
2023-03-13T12:16:49.382Z,21.52
2023-03-13T12:19:24.622Z,22.23
2023-03-13T12:21:55.817Z,18.90
2023-03-13T12:24:30.865Z,19.65
2023-03-13T12:27:03.368Z,20.13
2023-03-13T12:29:43.082Z,15.48
2023-03-13T12:32:16.111Z,28.35
2023-03-13T12:34:56.553Z,27.05
2023-03-13T12:37:32.313Z,19.80
2023-03-13T12:40:08.624Z,26.27
2023-03-13T12:42:48.168Z,28.35
2023-03-13T12:45:19.272Z,24.60
2023-03-13T12:48:10.329Z,26.23
2023-03-13T12:50:55.568Z,21.75
2023-03-13T12:53:58.338Z,23.42
2023-03-13T12:56:38.779Z,24.58
2023-03-13T12:59:10.421Z,27.05
2023-03-13T13:01:42.578Z,28.02
2023-03-13T13:04:15.411Z,29.98
2023-03-13T13:06:56.591Z,27.10
2023-03-13T13:09:26.169Z,23.15
2023-03-13T13:11:57.655Z,23.35
2023-03-13T13:14:59.936Z,24.90
2023-03-13T13:17:48.379Z,27.48
2023-03-13T13:20:32.174Z,28.95
2023-03-13T13:25:42.933Z,24.17
2023-03-13T13:28:28.749Z,33.15
2023-03-13T13:30:57.917Z,31.02
2023-03-13T13:33:40.967Z,34.05
2023-03-13T13:36:31.304Z,27.20
2023-03-13T13:39:00.100Z,24.80
2023-03-13T13:41:38.463Z,24.55
2023-03-13T13:44:29.483Z,34.20
2023-03-13T13:47:01.911Z,37.38
2023-03-13T13:49:36.540Z,28.15
2023-03-13T13:52:37.041Z,35.22
2023-03-13T13:55:34.274Z,31.77
2023-03-13T13:58:05.296Z,27.75
2023-03-13T14:00:42.016Z,35.88
2023-03-13T14:03:20.342Z,27.40
2023-03-13T14:05:49.929Z,28.23
2023-03-13T14:08:24.094Z,29.02
2023-03-13T14:11:05.253Z,23.20
2023-03-13T14:13:33.326Z,20.38
2023-03-13T14:16:24.104Z,26.80
2023-03-13T14:18:53.416Z,26.60
2023-03-13T14:21:24.515Z,34.80
2023-03-13T14:23:52.384Z,29.77
2023-03-13T14:26:22.026Z,31.42
2023-03-13T14:28:51.802Z,32.13
2023-03-13T14:31:27.769Z,31.00
2023-03-13T14:33:57.765Z,35.65
2023-03-13T14:36:25.995Z,26.88
2023-03-13T14:38:56.790Z,29.60
2023-03-13T14:41:38.320Z,30.48
2023-03-13T14:44:08.311Z,33.33
2023-03-13T14:46:41.486Z,31.65
2023-03-13T14:49:17.426Z,41.72
2023-03-13T14:51:45.726Z,28.77
2023-03-13T14:54:28.880Z,24.60
2023-03-13T14:57:24.045Z,37.55
2023-03-13T14:59:53.706Z,33.72
2023-03-13T15:02:25.478Z,35.15
2023-03-13T15:04:57.507Z,29.40
2023-03-13T15:07:27.630Z,36.50
2023-03-13T15:09:55.807Z,29.42
2023-03-13T15:12:24.612Z,28.55
2023-03-13T15:14:54.023Z,30.23
2023-03-13T15:17:25.463Z,32.97
2023-03-13T15:19:55.841Z,41.28
2023-03-13T15:22:29.275Z,36.03
2023-03-13T15:25:06.069Z,37.95
2023-03-13T15:27:35.735Z,30.65
2023-03-13T15:30:03.967Z,43.42
2023-03-13T15:32:35.566Z,34.30
2023-03-13T15:35:12.909Z,48.03
2023-03-13T15:37:40.881Z,33.75
2023-03-13T15:40:15.551Z,29.80
2023-03-13T15:42:43.729Z,37.53
2023-03-13T15:45:12.597Z,36.38
2023-03-13T15:47:41.959Z,32.00
2023-03-13T15:50:13.849Z,32.38
2023-03-13T15:52:42.333Z,35.03
2023-03-13T15:55:12.881Z,42.85
2023-03-13T15:57:43.993Z,45.35
2023-03-13T16:00:18.986Z,30.00
2023-03-13T16:02:48.576Z,29.13
2023-03-13T16:05:17.280Z,45.92
2023-03-13T16:07:45.384Z,38.55
2023-03-13T16:10:19.051Z,41.45
2023-03-13T16:15:15.009Z,39.85
2023-03-13T16:17:43.009Z,35.03
2023-03-13T16:20:19.060Z,41.45
2023-03-13T16:22:47.163Z,38.97
2023-03-13T16:25:16.007Z,34.05
2023-03-13T16:27:44.467Z,40.70
2023-03-13T16:30:18.726Z,33.40
2023-03-13T16:32:47.271Z,35.75
2023-03-13T16:35:17.513Z,40.47
2023-03-13T16:37:45.885Z,49.75
2023-03-13T16:40:18.775Z,30.92
2023-03-13T16:42:46.718Z,25.48
2023-03-13T16:45:15.556Z,40.90
2023-03-13T16:47:44.967Z,39.45
2023-03-13T16:50:24.596Z,42.63
2023-03-13T16:52:53.710Z,43.90
2023-03-13T16:55:24.766Z,40.83
2023-03-13T16:57:54.860Z,38.53
2023-03-13T17:00:24.199Z,44.45
2023-03-13T17:02:52.509Z,24.42
2023-03-13T17:05:22.434Z,38.42
2023-03-13T17:07:52.280Z,31.30
2023-03-13T17:10:23.000Z,36.75
2023-03-13T17:12:51.314Z,36.63
2023-03-13T17:15:21.815Z,40.80
2023-03-13T17:17:52.445Z,37.22
2023-03-13T17:20:25.230Z,36.70
2023-03-13T17:22:53.794Z,42.80
2023-03-13T17:25:21.968Z,31.38
2023-03-13T17:27:50.041Z,41.88
2023-03-13T17:30:24.082Z,33.35
2023-03-13T17:32:52.859Z,42.55
2023-03-13T17:35:23.247Z,35.00
2023-03-13T17:37:51.614Z,39.80
2023-03-13T17:40:21.943Z,31.27
2023-03-13T17:42:50.287Z,33.08
2023-03-13T17:45:18.940Z,36.80
2023-03-13T17:47:49.323Z,40.88
2023-03-13T17:50:21.198Z,38.20
2023-03-13T17:52:50.597Z,35.53
2023-03-13T17:55:19.168Z,32.03
2023-03-13T17:57:48.403Z,34.95
2023-03-13T18:00:22.318Z,28.75
2023-03-13T18:02:50.507Z,49.83
2023-03-13T18:05:19.529Z,41.40
2023-03-13T18:07:48.316Z,26.75
2023-03-13T18:10:22.837Z,48.08
2023-03-13T18:12:51.577Z,36.60
2023-03-13T18:15:20.381Z,38.92
2023-03-13T18:17:48.642Z,32.28
2023-03-13T18:20:18.616Z,30.90
2023-03-13T18:22:47.160Z,36.50
2023-03-13T18:25:16.238Z,43.95
2023-03-13T18:27:45.969Z,46.80
2023-03-13T18:30:20.597Z,36.17
2023-03-13T18:32:48.858Z,33.08
2023-03-13T18:35:17.763Z,31.73
2023-03-13T18:37:48.376Z,42.97
2023-03-13T18:40:20.720Z,37.45
2023-03-13T18:42:50.627Z,34.22
2023-03-13T18:45:21.069Z,36.75
2023-03-13T18:47:49.400Z,42.95
2023-03-13T18:50:23.622Z,37.95
2023-03-13T18:52:52.285Z,30.65
2023-03-13T18:55:20.491Z,41.60
2023-03-13T18:57:50.266Z,36.05
2023-03-13T19:00:20.989Z,43.90
2023-03-13T19:02:49.596Z,36.50
2023-03-13T19:05:18.778Z,38.80
2023-03-13T19:07:46.990Z,37.20
2023-03-13T19:10:20.418Z,43.08
2023-03-13T19:12:49.959Z,39.70
2023-03-13T19:15:19.083Z,46.10
2023-03-13T19:17:47.152Z,36.58
2023-03-13T19:20:17.388Z,39.20
2023-03-13T19:22:45.288Z,39.45
2023-03-13T19:25:17.033Z,52.25
2023-03-13T19:27:45.598Z,35.70
2023-03-13T19:30:19.219Z,36.78
2023-03-13T19:35:18.950Z,43.83
2023-03-13T19:37:47.048Z,43.72
2023-03-13T19:40:19.470Z,50.42
2023-03-13T19:42:47.483Z,47.42
2023-03-13T19:45:17.390Z,36.95
2023-03-13T19:47:46.749Z,39.17
2023-03-13T19:50:19.178Z,44.05
2023-03-13T19:52:47.300Z,60.20
2023-03-13T19:55:15.935Z,46.92
2023-03-13T19:57:44.131Z,56.45
2023-03-13T20:00:20.842Z,54.58
2023-03-13T20:02:52.011Z,41.78
2023-03-13T20:05:20.216Z,37.58
2023-03-13T20:07:48.826Z,47.25
2023-03-13T20:10:17.398Z,46.47
2023-03-13T20:12:45.522Z,39.47
2023-03-13T20:15:13.955Z,48.78
2023-03-13T20:17:42.019Z,42.45
2023-03-13T20:20:13.712Z,43.03
2023-03-13T20:22:41.915Z,42.75
2023-03-13T20:25:10.801Z,44.22
2023-03-13T20:27:39.166Z,44.38
2023-03-13T20:30:09.237Z,37.08
2023-03-13T20:32:39.449Z,43.05
2023-03-13T20:35:15.896Z,51.65
2023-03-13T20:37:43.908Z,49.85
2023-03-13T20:40:13.753Z,46.05
2023-03-13T20:42:41.776Z,50.63
2023-03-13T20:45:10.341Z,49.90
2023-03-13T20:47:38.313Z,55.42
2023-03-13T20:50:07.733Z,46.45
2023-03-13T20:52:37.308Z,55.45
2023-03-13T20:55:06.174Z,45.38
2023-03-13T20:57:34.050Z,41.28
2023-03-13T21:00:02.407Z,40.67
2023-03-13T21:02:30.817Z,38.65
2023-03-13T21:04:58.998Z,48.10
2023-03-13T21:07:27.190Z,38.50
2023-03-13T21:09:56.523Z,43.13
2023-03-13T21:12:24.496Z,51.35
2023-03-13T21:14:53.620Z,46.85
2023-03-13T21:17:21.540Z,47.97
2023-03-13T21:19:49.819Z,48.40
2023-03-13T21:22:17.870Z,45.83
2023-03-13T21:24:48.544Z,51.80
2023-03-13T21:27:18.298Z,47.22
2023-03-13T21:29:47.380Z,40.90
2023-03-13T21:32:16.141Z,43.63
2023-03-13T21:34:44.582Z,48.55
2023-03-13T21:37:13.064Z,41.05
2023-03-13T21:39:42.161Z,48.28
2023-03-13T21:42:12.703Z,32.35
2023-03-13T21:44:42.218Z,48.13
2023-03-13T21:47:10.321Z,41.78
2023-03-13T21:49:38.527Z,39.33
2023-03-13T21:52:06.559Z,42.58
2023-03-13T21:54:34.500Z,42.30
2023-03-13T21:57:02.428Z,45.25
2023-03-13T21:59:31.886Z,41.53
2023-03-13T22:02:01.153Z,39.22
2023-03-13T22:04:29.324Z,38.35
2023-03-13T22:06:57.547Z,30.25
2023-03-13T22:09:25.470Z,44.55
2023-03-13T22:11:53.585Z,32.92
2023-03-13T22:14:22.184Z,50.67
2023-03-13T22:16:50.547Z,47.58
2023-03-13T22:19:20.122Z,33.67
2023-03-13T22:21:48.217Z,37.65
2023-03-13T22:24:16.148Z,44.35
2023-03-13T22:26:44.039Z,41.35
2023-03-13T22:29:12.126Z,42.95
2023-03-13T22:31:40.218Z,39.80
2023-03-13T22:34:08.579Z,31.25
2023-03-13T22:36:38.267Z,44.47
2023-03-13T22:39:07.368Z,41.78
2023-03-13T22:41:36.082Z,40.35
2023-03-13T22:44:04.644Z,41.88
2023-03-13T22:46:34.279Z,36.35
2023-03-13T22:49:02.742Z,38.10
2023-03-13T22:51:31.564Z,32.88
2023-03-13T22:54:01.823Z,41.38
2023-03-13T22:56:30.391Z,43.15
2023-03-13T22:58:58.507Z,35.70
2023-03-13T23:01:27.989Z,48.10
2023-03-13T23:03:57.201Z,34.78
2023-03-13T23:06:26.888Z,33.10
2023-03-13T23:08:55.202Z,50.08
2023-03-13T23:11:24.603Z,44.00
2023-03-13T23:13:52.575Z,44.22
2023-03-13T23:16:20.615Z,49.17
2023-03-13T23:18:48.837Z,35.65
2023-03-13T23:21:17.544Z,39.85
2023-03-13T23:23:45.874Z,44.60
2023-03-13T23:26:15.492Z,43.53
2023-03-13T23:28:44.910Z,33.75
2023-03-13T23:31:14.597Z,39.85
2023-03-13T23:33:42.997Z,41.42
2023-03-13T23:36:13.996Z,42.00
2023-03-13T23:38:42.414Z,39.33
2023-03-13T23:41:12.613Z,37.13
2023-03-13T23:43:43.842Z,37.25
2023-03-13T23:46:18.907Z,39.20
2023-03-13T23:48:47.431Z,42.33
2023-03-13T23:51:15.512Z,40.13
2023-03-13T23:53:44.462Z,30.55
2023-03-13T23:56:13.053Z,32.10
2023-03-13T23:58:41.345Z,31.50
